createdAt,value
2017-05-29T00:00:23.775Z,1.40
2017-05-29T00:02:50.018Z,1.66
2017-05-29T00:05:16.366Z,2.98
2017-05-29T00:07:42.549Z,1.56
2017-05-29T00:10:08.754Z,1.50
2017-05-29T00:12:34.917Z,2.86
2017-05-29T00:15:01.992Z,1.66
2017-05-29T00:17:28.254Z,1.82
2017-05-29T00:19:54.462Z,1.72
2017-05-29T00:22:20.682Z,1.40
2017-05-29T00:24:46.961Z,1.50
2017-05-29T00:27:13.119Z,1.50
2017-05-29T00:29:39.389Z,1.46
2017-05-29T00:32:07.305Z,1.68
2017-05-29T00:34:33.500Z,1.46
2017-05-29T00:36:59.660Z,1.52
2017-05-29T00:39:25.856Z,1.38
2017-05-29T00:41:52.129Z,1.42
2017-05-29T00:44:18.299Z,1.48
2017-05-29T00:46:45.251Z,1.42
2017-05-29T00:49:11.527Z,1.50
2017-05-29T00:51:38.574Z,1.64
2017-05-29T00:54:04.732Z,1.70
2017-05-29T00:56:30.930Z,1.54
2017-05-29T00:58:57.121Z,1.58
2017-05-29T01:01:23.375Z,1.70
2017-05-29T01:03:49.541Z,1.50
2017-05-29T01:06:15.817Z,1.46
2017-05-29T01:08:42.007Z,3.84
2017-05-29T01:11:08.158Z,1.42
2017-05-29T01:13:34.394Z,1.50
2017-05-29T01:16:00.605Z,1.50
2017-05-29T01:18:26.780Z,1.78
2017-05-29T01:20:52.978Z,2.18
2017-05-29T01:23:19.297Z,1.74
2017-05-29T01:25:45.568Z,1.30
2017-05-29T01:28:14.681Z,1.70
2017-05-29T01:30:41.460Z,1.60
2017-05-29T01:33:07.619Z,1.56
2017-05-29T01:35:33.781Z,2.10
2017-05-29T01:38:00.862Z,2.20
2017-05-29T01:40:28.118Z,2.40
2017-05-29T01:42:54.349Z,2.04
2017-05-29T01:45:20.592Z,1.48
2017-05-29T01:47:46.747Z,1.50
2017-05-29T01:50:12.937Z,1.64
2017-05-29T01:52:40.205Z,2.20
2017-05-29T01:55:06.492Z,1.66
2017-05-29T01:57:32.682Z,1.62
2017-05-29T01:59:59.730Z,1.62
2017-05-29T02:02:26.763Z,2.00
2017-05-29T02:04:52.955Z,1.70
2017-05-29T02:07:19.987Z,2.60
2017-05-29T02:09:46.251Z,1.92
2017-05-29T02:12:12.415Z,1.90
2017-05-29T02:14:39.621Z,1.76
2017-05-29T02:17:07.010Z,2.76
2017-05-29T02:19:34.072Z,2.54
2017-05-29T02:22:00.232Z,2.12
2017-05-29T02:24:26.462Z,1.98
2017-05-29T02:26:52.647Z,1.90
2017-05-29T02:29:19.754Z,2.36
2017-05-29T02:31:46.074Z,2.08
2017-05-29T02:34:12.233Z,1.80
2017-05-29T02:36:39.354Z,1.86
2017-05-29T02:39:05.513Z,1.80
2017-05-29T02:41:31.736Z,2.62
2017-05-29T02:43:59.724Z,1.86
2017-05-29T02:46:25.877Z,1.64
2017-05-29T02:48:52.057Z,2.44
2017-05-29T02:51:18.206Z,2.10
2017-05-29T02:53:44.406Z,1.90
2017-05-29T02:56:10.774Z,1.80
2017-05-29T02:58:37.696Z,2.22
2017-05-29T03:01:03.974Z,2.12
2017-05-29T03:03:30.169Z,2.54
2017-05-29T03:05:56.334Z,2.26
2017-05-29T03:08:23.314Z,2.08
2017-05-29T03:10:49.490Z,2.10
2017-05-29T03:13:16.182Z,2.24
2017-05-29T03:15:42.417Z,2.30
2017-05-29T03:18:08.595Z,2.40
2017-05-29T03:20:34.757Z,2.10
2017-05-29T03:23:00.904Z,2.52
2017-05-29T03:25:27.122Z,1.90
2017-05-29T03:37:33.494Z,2.58
2017-05-29T03:40:02.466Z,2.10
2017-05-29T03:42:28.621Z,2.48
2017-05-29T03:44:54.819Z,2.38
2017-05-29T03:47:21.011Z,2.58
2017-05-29T03:49:47.313Z,2.12
2017-05-29T03:52:13.465Z,2.74
2017-05-29T03:54:40.424Z,2.60
2017-05-29T03:57:06.598Z,2.20
2017-05-29T03:59:33.513Z,2.68
2017-05-29T04:01:59.680Z,2.14
2017-05-29T04:04:26.654Z,2.54
2017-05-29T04:06:52.873Z,2.48
2017-05-29T04:09:19.713Z,2.50
2017-05-29T04:11:45.881Z,2.58
2017-05-29T04:14:12.900Z,2.50
2017-05-29T04:16:39.413Z,2.40
2017-05-29T04:19:06.357Z,2.80
2017-05-29T04:21:32.549Z,2.66
2017-05-29T04:23:58.786Z,2.50
2017-05-29T04:26:25.170Z,2.46
2017-05-29T04:28:51.397Z,2.64
2017-05-29T04:31:17.567Z,4.48
2017-05-29T04:33:43.795Z,2.74
2017-05-29T04:36:10.013Z,2.94
2017-05-29T04:38:36.519Z,2.50
2017-05-29T04:41:03.490Z,3.98
2017-05-29T04:43:29.647Z,4.14
2017-05-29T04:45:55.817Z,3.72
2017-05-29T04:48:21.990Z,3.06
2017-05-29T04:50:48.278Z,3.52
2017-05-29T04:53:14.465Z,3.00
2017-05-29T04:55:40.630Z,2.66
2017-05-29T04:58:06.926Z,4.00
2017-05-29T05:00:33.833Z,4.66
2017-05-29T05:03:00.132Z,2.76
2017-05-29T05:05:26.350Z,2.90
2017-05-29T05:07:52.514Z,3.74
2017-05-29T05:10:19.406Z,2.72
2017-05-29T05:12:45.565Z,3.54
2017-05-29T05:15:11.823Z,3.14
2017-05-29T05:17:37.981Z,3.62
2017-05-29T05:20:04.233Z,5.54
2017-05-29T05:22:30.511Z,7.34
2017-05-29T05:24:56.782Z,13.50
2017-05-29T05:27:23.106Z,11.10
2017-05-29T05:29:49.452Z,6.74
2017-05-29T05:32:15.642Z,7.18
2017-05-29T05:34:41.884Z,6.98
2017-05-29T05:37:08.887Z,6.50
2017-05-29T05:39:35.057Z,10.26
2017-05-29T05:42:02.946Z,7.42
2017-05-29T05:44:30.049Z,6.92
2017-05-29T05:46:56.248Z,9.20
2017-05-29T05:49:23.411Z,8.14
2017-05-29T05:51:49.588Z,8.88
2017-05-29T05:54:15.745Z,9.02
2017-05-29T05:56:42.009Z,9.42
2017-05-29T05:59:08.247Z,9.70
2017-05-29T06:01:34.438Z,8.30
2017-05-29T06:04:00.594Z,12.36
2017-05-29T06:06:26.759Z,9.76
2017-05-29T06:08:53.916Z,8.98
2017-05-29T06:11:20.826Z,12.18
2017-05-29T06:13:47.075Z,10.10
2017-05-29T06:16:13.271Z,8.38
2017-05-29T06:18:39.483Z,8.32
2017-05-29T06:21:05.692Z,8.58
2017-05-29T06:23:31.861Z,9.16
2017-05-29T06:25:59.486Z,10.66
2017-05-29T06:28:25.650Z,11.06
2017-05-29T06:30:51.842Z,8.98
2017-05-29T06:33:18.086Z,8.40
2017-05-29T06:35:44.287Z,7.72
2017-05-29T06:38:10.473Z,8.34
2017-05-29T06:40:36.651Z,6.98
2017-05-29T06:43:02.861Z,5.36
2017-05-29T06:45:29.346Z,4.52
2017-05-29T06:47:55.559Z,5.46
2017-05-29T06:50:21.726Z,5.38
2017-05-29T06:52:47.933Z,5.04
2017-05-29T06:55:14.085Z,4.36
2017-05-29T06:57:40.335Z,4.98
2017-05-29T07:00:07.386Z,3.88
2017-05-29T07:02:33.598Z,4.04
2017-05-29T07:04:59.758Z,3.24
2017-05-29T07:07:26.000Z,3.90
2017-05-29T07:09:52.169Z,2.86
2017-05-29T07:12:18.422Z,3.54
2017-05-29T07:14:44.633Z,3.06
2017-05-29T07:17:10.798Z,3.26
2017-05-29T07:19:37.018Z,3.60
2017-05-29T07:22:03.188Z,3.52
2017-05-29T07:24:29.471Z,3.56
2017-05-29T07:26:55.699Z,3.24
2017-05-29T07:29:21.910Z,3.84
2017-05-29T07:31:48.079Z,3.10
2017-05-29T07:34:14.271Z,3.22
2017-05-29T07:36:40.529Z,4.44
2017-05-29T07:39:06.693Z,2.70
2017-05-29T07:41:32.857Z,2.60
2017-05-29T07:43:59.095Z,4.12
2017-05-29T07:46:25.267Z,4.28
2017-05-29T07:48:51.558Z,2.78
2017-05-29T07:51:17.734Z,2.58
2017-05-29T07:53:44.035Z,2.60
2017-05-29T07:56:10.235Z,3.38
2017-05-29T07:58:36.449Z,3.50
2017-05-29T08:01:02.946Z,2.68
2017-05-29T08:03:29.117Z,2.82
2017-05-29T08:05:55.286Z,2.56
2017-05-29T08:08:21.477Z,2.60
2017-05-29T08:10:47.665Z,3.32
2017-05-29T08:13:13.913Z,3.12
2017-05-29T08:15:40.142Z,3.54
2017-05-29T08:18:06.362Z,4.02
2017-05-29T08:20:32.549Z,2.76
2017-05-29T08:22:58.718Z,2.90
2017-05-29T08:25:24.987Z,2.46
2017-05-29T08:27:51.163Z,2.78
2017-05-29T08:30:17.373Z,2.44
2017-05-29T08:42:23.555Z,2.40
2017-05-29T08:44:49.729Z,2.38
2017-05-29T08:47:16.007Z,2.54
2017-05-29T08:49:42.181Z,2.50
2017-05-29T08:52:08.339Z,2.60
2017-05-29T08:54:34.558Z,2.70
2017-05-29T08:57:00.765Z,2.84
2017-05-29T08:59:26.946Z,2.08
2017-05-29T09:01:53.196Z,2.08
2017-05-29T09:04:19.346Z,2.28
2017-05-29T09:06:45.572Z,2.34
2017-05-29T09:09:11.775Z,2.56
2017-05-29T09:11:37.936Z,2.74
2017-05-29T09:14:04.177Z,2.36
2017-05-29T09:16:30.464Z,2.40
2017-05-29T09:18:56.650Z,2.60
2017-05-29T09:21:22.818Z,1.86
2017-05-29T09:23:49.721Z,2.30
2017-05-29T09:26:15.882Z,2.40
2017-05-29T09:28:42.169Z,2.00
2017-05-29T09:31:09.071Z,2.76
2017-05-29T09:33:35.388Z,1.88
2017-05-29T09:36:01.915Z,2.60
2017-05-29T09:38:28.079Z,2.32
2017-05-29T09:40:54.261Z,2.50
2017-05-29T09:43:20.436Z,2.04
2017-05-29T09:45:46.724Z,2.22
2017-05-29T09:48:12.912Z,1.96
2017-05-29T09:50:39.077Z,2.14
2017-05-29T09:53:05.224Z,2.52
2017-05-29T09:55:31.872Z,2.26
2017-05-29T09:57:58.333Z,2.36
2017-05-29T10:00:25.310Z,2.22
2017-05-29T10:02:51.490Z,2.42
2017-05-29T10:05:17.725Z,2.68
2017-05-29T10:07:43.923Z,2.44
2017-05-29T10:10:10.131Z,2.40
2017-05-29T10:12:36.290Z,2.32
2017-05-29T10:15:03.624Z,1.70
2017-05-29T10:17:29.852Z,2.12
2017-05-29T10:19:56.018Z,2.44
2017-05-29T10:22:22.219Z,2.28
2017-05-29T10:24:48.401Z,2.46
2017-05-29T10:27:14.739Z,1.94
2017-05-29T10:29:40.950Z,2.30
2017-05-29T10:32:07.181Z,2.38
2017-05-29T10:34:34.839Z,2.06
2017-05-29T10:37:01.015Z,1.90
2017-05-29T10:39:27.282Z,2.64
2017-05-29T10:41:53.438Z,2.54
2017-05-29T10:44:19.667Z,1.84
2017-05-29T10:46:45.994Z,2.12
2017-05-29T10:49:13.209Z,2.40
2017-05-29T10:51:39.370Z,2.20
2017-05-29T10:54:05.536Z,2.20
2017-05-29T10:56:31.754Z,3.00
2017-05-29T10:58:57.990Z,2.68
2017-05-29T11:01:24.297Z,3.28
2017-05-29T11:03:50.469Z,2.44
2017-05-29T11:06:16.770Z,2.34
2017-05-29T11:08:42.951Z,2.80
2017-05-29T11:11:09.210Z,2.82
2017-05-29T11:13:35.526Z,2.24
2017-05-29T11:16:01.776Z,2.52
2017-05-29T11:18:28.021Z,2.62
2017-05-29T11:20:54.233Z,2.20
2017-05-29T11:33:00.424Z,2.86
2017-05-29T11:35:26.684Z,3.06
2017-05-29T11:37:53.357Z,2.60
2017-05-29T11:40:19.551Z,2.84
2017-05-29T11:52:25.776Z,3.20
2017-05-29T11:54:53.971Z,2.56
2017-05-29T11:57:20.202Z,3.30
2017-05-29T11:59:46.406Z,2.92
2017-05-29T12:02:12.661Z,3.06
2017-05-29T12:04:38.873Z,3.32
2017-05-29T12:07:05.034Z,3.02
2017-05-29T12:09:32.197Z,2.90
2017-05-29T12:11:58.421Z,3.92
2017-05-29T12:14:24.597Z,3.32
2017-05-29T12:16:50.886Z,2.82
2017-05-29T12:19:17.129Z,3.06
2017-05-29T12:21:43.308Z,2.16
2017-05-29T12:24:09.466Z,3.40
2017-05-29T12:26:36.210Z,2.76
2017-05-29T12:29:02.509Z,8.68
2017-05-29T12:31:29.487Z,5.20
2017-05-29T12:33:56.326Z,4.28
2017-05-29T12:36:22.606Z,4.18
2017-05-29T12:38:48.895Z,4.30
2017-05-29T12:41:15.180Z,5.98
2017-05-29T12:43:43.818Z,5.94
2017-05-29T12:46:10.081Z,4.66
2017-05-29T12:48:36.489Z,4.40
2017-05-29T12:51:02.765Z,4.92
2017-05-29T12:53:28.974Z,4.90
2017-05-29T12:55:55.179Z,10.12
2017-05-29T12:58:21.354Z,10.20
2017-05-29T13:00:47.526Z,9.20
2017-05-29T13:03:13.809Z,6.90
2017-05-29T13:05:40.023Z,10.38
2017-05-29T13:08:06.210Z,7.08
2017-05-29T13:10:32.425Z,7.24
2017-05-29T13:12:58.587Z,9.02
2017-05-29T13:15:24.902Z,8.60
2017-05-29T13:17:51.113Z,9.96
2017-05-29T13:20:18.047Z,9.60
2017-05-29T13:22:44.367Z,8.44
2017-05-29T13:25:11.553Z,7.12
2017-05-29T13:27:37.946Z,8.76
2017-05-29T13:30:04.111Z,7.56
2017-05-29T13:32:30.298Z,11.48
2017-05-29T13:34:56.570Z,8.32
2017-05-29T13:37:22.783Z,8.46
2017-05-29T13:39:49.189Z,9.66
2017-05-29T13:42:16.322Z,10.62
2017-05-29T13:44:42.582Z,13.46
2017-05-29T13:47:08.799Z,14.04
2017-05-29T13:49:35.079Z,14.52
2017-05-29T13:52:02.190Z,13.34
2017-05-29T13:54:28.428Z,13.38
2017-05-29T13:56:54.592Z,15.70
2017-05-29T13:59:20.752Z,13.58
2017-05-29T14:01:48.454Z,14.90
2017-05-29T14:04:15.457Z,14.60
2017-05-29T14:06:41.633Z,13.38
2017-05-29T14:09:07.834Z,13.70
2017-05-29T14:11:34.753Z,20.56
2017-05-29T14:14:01.689Z,16.00
2017-05-29T14:16:28.334Z,16.44
2017-05-29T14:18:54.662Z,12.90
2017-05-29T14:21:20.881Z,16.00
2017-05-29T14:23:47.794Z,19.04
2017-05-29T14:26:14.182Z,15.54
2017-05-29T14:28:40.422Z,16.00
2017-05-29T14:31:06.677Z,20.40
2017-05-29T14:33:32.926Z,14.78
2017-05-29T14:35:59.106Z,15.46
2017-05-29T14:38:25.895Z,14.44
2017-05-29T14:40:52.096Z,18.02
2017-05-29T14:43:18.346Z,17.54
2017-05-29T14:45:44.552Z,15.26
2017-05-29T14:48:10.794Z,18.62
2017-05-29T14:50:37.711Z,16.24
2017-05-29T14:53:04.607Z,13.50
2017-05-29T14:55:30.865Z,15.10
2017-05-29T14:57:57.771Z,14.84
2017-05-29T15:00:24.034Z,15.72
2017-05-29T15:02:50.290Z,15.38
2017-05-29T15:05:17.273Z,16.30
2017-05-29T15:07:43.528Z,15.04
2017-05-29T15:10:09.702Z,16.00
2017-05-29T15:12:35.910Z,14.72
2017-05-29T15:15:02.260Z,15.52
2017-05-29T15:17:28.449Z,14.24
2017-05-29T15:19:54.717Z,15.46
2017-05-29T15:22:22.297Z,13.84
2017-05-29T15:24:49.202Z,12.60
2017-05-29T15:27:15.406Z,12.42
2017-05-29T15:29:41.890Z,12.48
2017-05-29T15:32:08.095Z,13.44
2017-05-29T15:34:34.796Z,14.94
2017-05-29T15:37:01.060Z,13.06
2017-05-29T15:39:28.012Z,16.04
2017-05-29T15:41:54.265Z,13.48
2017-05-29T15:44:20.429Z,13.32
2017-05-29T15:46:46.630Z,11.98
2017-05-29T15:49:14.400Z,10.70
2017-05-29T15:51:40.586Z,12.42
2017-05-29T15:54:06.826Z,11.66
2017-05-29T15:56:32.995Z,12.52
2017-05-29T15:58:59.897Z,11.62
2017-05-29T16:01:26.093Z,12.28
2017-05-29T16:03:52.405Z,12.74
2017-05-29T16:06:18.594Z,11.42
2017-05-29T16:08:44.758Z,11.48
2017-05-29T16:11:10.931Z,10.60
2017-05-29T16:13:37.085Z,10.52
2017-05-29T16:16:03.390Z,10.66
2017-05-29T16:18:29.551Z,11.22
2017-05-29T16:20:55.778Z,10.74
2017-05-29T16:23:21.953Z,11.24
2017-05-29T16:25:48.178Z,11.30
2017-05-29T16:28:14.383Z,11.56
2017-05-29T16:30:42.114Z,11.88
2017-05-29T16:33:09.080Z,9.14
2017-05-29T16:35:36.015Z,9.44
2017-05-29T16:38:02.293Z,12.28
2017-05-29T16:40:28.463Z,11.54
2017-05-29T16:42:54.643Z,11.62
2017-05-29T16:45:20.807Z,11.48
2017-05-29T16:47:46.970Z,13.28
2017-05-29T16:50:13.302Z,10.82
2017-05-29T16:52:40.244Z,11.52
2017-05-29T16:55:06.426Z,10.96
2017-05-29T16:57:32.606Z,9.94
2017-05-29T16:59:58.828Z,14.34
2017-05-29T17:02:25.184Z,13.14
2017-05-29T17:04:51.394Z,12.46
2017-05-29T17:07:17.557Z,12.82
2017-05-29T17:09:43.786Z,13.72
2017-05-29T17:21:49.980Z,10.46
2017-05-29T17:24:16.184Z,12.88
2017-05-29T17:26:42.554Z,10.60
2017-05-29T17:29:08.803Z,17.42
2017-05-29T17:31:35.450Z,19.80
2017-05-29T17:34:01.641Z,16.64
2017-05-29T17:36:27.877Z,16.90
2017-05-29T17:38:55.222Z,16.38
2017-05-29T17:41:21.435Z,17.72
2017-05-29T17:43:47.607Z,18.74
2017-05-29T17:46:13.838Z,14.90
2017-05-29T17:48:40.037Z,16.30
2017-05-29T17:51:06.333Z,15.18
2017-05-29T17:53:32.525Z,14.14
2017-05-29T17:55:58.735Z,14.86
2017-05-29T17:58:24.958Z,14.52
2017-05-29T18:00:52.159Z,13.18
2017-05-29T18:03:19.426Z,14.98
2017-05-29T18:05:45.590Z,16.40
2017-05-29T18:08:11.762Z,14.68
2017-05-29T18:10:37.921Z,15.88
2017-05-29T18:13:04.130Z,14.26
2017-05-29T18:15:30.411Z,14.50
2017-05-29T18:17:56.593Z,13.02
2017-05-29T18:20:22.780Z,14.06
2017-05-29T18:22:48.947Z,11.68
2017-05-29T18:25:15.199Z,13.06
2017-05-29T18:27:41.454Z,11.92
2017-05-29T18:30:07.682Z,12.48
2017-05-29T18:32:33.886Z,11.16
2017-05-29T18:35:00.055Z,10.92
2017-05-29T18:37:26.234Z,12.28
2017-05-29T18:39:52.537Z,11.22
2017-05-29T18:42:19.658Z,11.06
2017-05-29T18:44:45.827Z,11.18
2017-05-29T18:47:12.034Z,11.76
2017-05-29T18:49:38.991Z,10.50
2017-05-29T18:52:06.065Z,10.22
2017-05-29T18:54:32.990Z,10.42
2017-05-29T18:56:59.262Z,11.00
2017-05-29T18:59:25.467Z,11.32
2017-05-29T19:01:51.677Z,10.90
2017-05-29T19:04:18.804Z,10.96
2017-05-29T19:06:45.743Z,11.34
2017-05-29T19:09:12.726Z,10.30
2017-05-29T19:11:39.705Z,10.18
2017-05-29T19:14:06.012Z,9.60
2017-05-29T19:16:32.295Z,9.70
2017-05-29T19:18:58.485Z,9.92
2017-05-29T19:21:24.662Z,9.82
2017-05-29T19:23:51.577Z,9.72
2017-05-29T19:26:17.774Z,10.08
2017-05-29T19:28:44.115Z,10.66
2017-05-29T19:31:10.291Z,11.64
2017-05-29T19:33:36.490Z,10.08
2017-05-29T19:36:03.292Z,11.66
2017-05-29T19:38:30.607Z,9.82
2017-05-29T19:40:57.013Z,11.82
2017-05-29T19:43:23.197Z,10.20
2017-05-29T19:45:49.408Z,17.74
2017-05-29T19:48:15.655Z,15.18
2017-05-29T19:50:41.823Z,17.54
2017-05-29T19:53:08.150Z,18.60
2017-05-29T19:55:34.358Z,19.58
2017-05-29T19:58:00.589Z,20.28
2017-05-29T20:00:26.773Z,19.32
2017-05-29T20:02:52.937Z,21.06
2017-05-29T20:05:19.205Z,22.54
2017-05-29T20:07:45.390Z,23.64
2017-05-29T20:10:11.630Z,21.10
2017-05-29T20:12:38.592Z,20.70
2017-05-29T20:24:50.739Z,18.78
2017-05-29T20:27:17.650Z,19.92
2017-05-29T20:29:43.856Z,15.56
2017-05-29T20:32:12.473Z,18.42
2017-05-29T20:34:38.739Z,19.04
2017-05-29T20:37:05.025Z,20.60
2017-05-29T20:39:31.199Z,16.30
2017-05-29T20:41:57.393Z,17.62
2017-05-29T20:44:23.594Z,14.26
2017-05-29T20:46:49.770Z,14.54
2017-05-29T20:49:16.057Z,13.22
2017-05-29T20:51:42.230Z,16.16
2017-05-29T20:54:08.409Z,12.76
2017-05-29T20:56:34.589Z,14.84
2017-05-29T20:59:01.556Z,12.10
2017-05-29T21:01:28.586Z,16.14
2017-05-29T21:03:55.082Z,13.04
2017-05-29T21:06:21.272Z,15.52
2017-05-29T21:08:47.509Z,17.52
2017-05-29T21:23:05.574Z,15.22
2017-05-29T21:25:31.766Z,11.44
2017-05-29T21:46:40.682Z,10.80
2017-05-29T21:49:07.314Z,13.64
2017-05-29T21:51:33.509Z,10.60
2017-05-29T21:53:59.670Z,13.58
2017-05-29T21:56:25.886Z,11.28
2017-05-29T21:58:52.170Z,10.48
2017-05-29T22:01:18.925Z,13.82
2017-05-29T22:03:45.150Z,12.26
2017-05-29T22:06:11.315Z,13.34
2017-05-29T22:08:37.502Z,10.98
2017-05-29T22:11:03.751Z,9.78
2017-05-29T22:13:29.953Z,9.78
2017-05-29T22:15:56.971Z,10.12
2017-05-29T22:18:23.183Z,9.64
2017-05-29T22:20:49.349Z,8.96
2017-05-29T22:23:15.608Z,10.24
2017-05-29T22:25:41.786Z,8.84
2017-05-29T22:28:08.015Z,8.52
2017-05-29T22:30:34.474Z,8.46
2017-05-29T22:33:00.642Z,9.00
2017-05-29T22:35:26.896Z,8.38
2017-05-29T22:37:53.102Z,8.48
2017-05-29T22:40:19.254Z,8.08
2017-05-29T22:42:45.405Z,8.04
2017-05-29T22:45:11.601Z,7.68
2017-05-29T22:47:37.995Z,7.48
2017-05-29T22:50:04.190Z,7.70
2017-05-29T22:52:30.364Z,7.08
2017-05-29T22:54:56.540Z,7.52
2017-05-29T22:57:22.724Z,7.06
2017-05-29T22:59:49.111Z,7.60
2017-05-29T23:02:15.269Z,8.24
2017-05-29T23:04:41.446Z,7.26
2017-05-29T23:07:07.654Z,7.58
2017-05-29T23:09:33.813Z,7.64
2017-05-29T23:12:00.112Z,7.54
2017-05-29T23:14:26.283Z,6.88
2017-05-29T23:16:52.445Z,7.12
2017-05-29T23:19:18.609Z,7.00
2017-05-29T23:21:44.838Z,7.64
2017-05-29T23:24:11.097Z,6.30
2017-05-29T23:26:37.305Z,6.88
2017-05-29T23:29:03.596Z,6.96
2017-05-29T23:31:29.763Z,6.68
2017-05-29T23:33:55.914Z,7.94
2017-05-29T23:36:22.209Z,8.46
2017-05-29T23:38:48.441Z,6.58
2017-05-29T23:41:14.611Z,7.02
2017-05-29T23:43:40.769Z,6.30
2017-05-29T23:46:06.930Z,7.30
2017-05-29T23:48:33.209Z,6.60
2017-05-29T23:50:59.366Z,6.54
2017-05-29T23:53:25.530Z,6.14
2017-05-29T23:55:51.753Z,6.42
2017-05-29T23:58:18.049Z,6.48
